createdAt,value
2022-09-17T00:01:25.004Z,24.58
2022-09-17T00:03:52.609Z,24.61
2022-09-17T00:06:19.404Z,24.61
2022-09-17T00:08:45.955Z,24.61
2022-09-17T00:11:23.378Z,24.61
2022-09-17T00:13:50.636Z,24.60
2022-09-17T00:16:31.545Z,24.61
2022-09-17T00:18:58.268Z,24.61
2022-09-17T00:21:25.028Z,24.55
2022-09-17T00:24:00.210Z,24.61
2022-09-17T00:26:26.981Z,24.61
2022-09-17T00:28:53.749Z,24.61
2022-09-17T00:31:20.770Z,24.61
2022-09-17T00:33:47.502Z,24.60
2022-09-17T00:36:14.067Z,24.59
2022-09-17T00:38:40.775Z,24.58
2022-09-17T00:41:08.082Z,24.59
2022-09-17T00:43:42.804Z,24.59
2022-09-17T00:46:28.172Z,24.49
2022-09-17T00:48:54.837Z,24.59
2022-09-17T00:51:25.683Z,24.59
2022-09-17T00:53:52.145Z,24.59
2022-09-17T00:56:24.416Z,24.59
2022-09-17T00:58:51.631Z,24.59
2022-09-17T01:01:18.183Z,24.59
2022-09-17T01:03:44.714Z,24.59
2022-09-17T01:06:40.757Z,24.55
2022-09-17T01:09:10.234Z,24.59
2022-09-17T01:12:01.425Z,24.60
2022-09-17T01:14:53.947Z,24.59
2022-09-17T01:17:30.911Z,24.59
2022-09-17T01:20:18.653Z,24.59
2022-09-17T01:23:04.708Z,24.59
2022-09-17T01:26:01.633Z,24.59
2022-09-17T01:28:49.059Z,24.59
2022-09-17T01:31:38.882Z,24.59
2022-09-17T01:34:29.031Z,24.58
2022-09-17T01:37:05.828Z,24.59
2022-09-17T01:39:35.399Z,24.59
2022-09-17T01:42:23.663Z,24.59
2022-09-17T01:44:58.332Z,24.58
2022-09-17T01:47:31.546Z,24.59
2022-09-17T01:50:01.468Z,24.58
2022-09-17T01:52:28.900Z,24.56
2022-09-17T01:54:57.570Z,24.54
2022-09-17T01:57:48.752Z,24.53
2022-09-17T02:00:17.460Z,24.58
2022-09-17T02:02:50.660Z,24.58
2022-09-17T02:05:31.085Z,24.57
2022-09-17T02:08:00.068Z,24.57
2022-09-17T02:10:31.721Z,24.47
2022-09-17T02:13:08.989Z,24.56
2022-09-17T02:15:38.299Z,24.56
2022-09-17T02:18:24.780Z,24.57
2022-09-17T02:20:55.002Z,24.54
2022-09-17T02:23:24.834Z,24.43
2022-09-17T02:25:55.109Z,24.57
2022-09-17T02:28:27.359Z,24.54
2022-09-17T02:30:54.560Z,24.50
2022-09-17T02:33:21.047Z,24.54
2022-09-17T02:35:47.514Z,24.58
2022-09-17T02:38:13.995Z,24.58
2022-09-17T02:40:48.824Z,24.58
2022-09-17T02:43:45.384Z,24.57
2022-09-17T02:46:57.228Z,24.57
2022-09-17T02:49:29.577Z,24.58
2022-09-17T02:52:24.001Z,24.58
2022-09-17T02:55:06.832Z,24.57
2022-09-17T02:58:20.091Z,24.57
2022-09-17T03:00:46.584Z,24.51
2022-09-17T03:03:20.894Z,24.57
2022-09-17T03:05:47.432Z,24.58
2022-09-17T03:08:14.357Z,24.57
2022-09-17T03:10:41.267Z,24.51
2022-09-17T03:13:07.764Z,24.58
2022-09-17T03:15:34.263Z,24.57
2022-09-17T03:18:00.746Z,24.57
2022-09-17T03:20:27.237Z,24.57
2022-09-17T03:22:53.719Z,24.58
2022-09-17T03:25:20.258Z,24.57
2022-09-17T03:27:47.575Z,24.58
2022-09-17T03:30:14.051Z,24.57
2022-09-17T03:32:40.547Z,24.54
2022-09-17T03:35:07.248Z,24.56
2022-09-17T03:37:33.791Z,24.56
2022-09-17T03:40:00.449Z,24.55
2022-09-17T03:42:27.103Z,24.54
2022-09-17T03:44:53.595Z,24.55
2022-09-17T03:47:20.078Z,24.55
2022-09-17T03:49:46.670Z,24.50
2022-09-17T03:52:13.176Z,24.50
2022-09-17T03:54:39.708Z,24.52
2022-09-17T03:57:06.377Z,24.56
2022-09-17T03:59:32.908Z,24.50
2022-09-17T04:01:59.450Z,24.55
2022-09-17T04:04:26.023Z,24.55
2022-09-17T04:06:52.499Z,24.55
2022-09-17T04:09:19.011Z,24.56
2022-09-17T04:11:45.543Z,24.56
2022-09-17T04:14:12.048Z,24.26
2022-09-17T04:16:38.519Z,24.56
2022-09-17T04:19:05.042Z,24.56
2022-09-17T04:21:31.544Z,24.56
2022-09-17T04:23:58.192Z,24.56
2022-09-17T04:26:24.728Z,24.57
2022-09-17T04:28:53.836Z,24.40
2022-09-17T04:31:22.617Z,24.57
2022-09-17T04:33:49.163Z,24.57
2022-09-17T04:36:15.902Z,24.54
2022-09-17T04:38:42.595Z,24.54
2022-09-17T04:41:09.099Z,24.56
2022-09-17T04:43:35.575Z,24.56
2022-09-17T04:46:02.220Z,24.57
2022-09-17T04:48:28.720Z,24.54
2022-09-17T04:50:55.205Z,24.56
2022-09-17T04:53:21.726Z,24.51
2022-09-17T04:55:48.210Z,24.55
2022-09-17T04:58:14.686Z,24.51
2022-09-17T05:00:42.486Z,24.52
2022-09-17T05:03:09.075Z,24.49
2022-09-17T05:05:35.588Z,24.52
2022-09-17T05:08:02.319Z,24.54
2022-09-17T05:10:28.830Z,24.53
2022-09-17T05:12:55.932Z,24.50
2022-09-17T05:15:23.119Z,24.34
2022-09-17T05:17:49.603Z,24.51
2022-09-17T05:20:16.382Z,24.54
2022-09-17T05:22:50.088Z,24.54
2022-09-17T05:25:17.176Z,24.54
2022-09-17T05:27:43.733Z,24.53
2022-09-17T05:30:11.746Z,24.53
2022-09-17T05:32:39.078Z,24.55
2022-09-17T05:35:06.207Z,24.50
2022-09-17T05:37:32.715Z,24.51
2022-09-17T05:39:59.305Z,24.56
2022-09-17T05:42:25.790Z,24.56
2022-09-17T05:44:52.284Z,24.56
2022-09-17T05:47:18.776Z,24.56
2022-09-17T05:49:45.291Z,24.53
2022-09-17T05:52:11.759Z,24.56
2022-09-17T05:54:38.260Z,24.55
2022-09-17T05:57:05.949Z,24.55
2022-09-17T05:59:32.461Z,24.57
2022-09-17T06:01:59.037Z,24.56
2022-09-17T06:04:25.595Z,24.57
2022-09-17T06:06:52.106Z,24.57
2022-09-17T06:09:18.603Z,24.56
2022-09-17T06:11:45.077Z,24.55
2022-09-17T06:14:11.553Z,24.56
2022-09-17T06:16:38.130Z,24.57
2022-09-17T06:19:04.727Z,24.56
2022-09-17T06:21:31.231Z,24.56
2022-09-17T06:23:57.737Z,24.56
2022-09-17T06:26:24.361Z,24.53
2022-09-17T06:28:50.870Z,24.55
2022-09-17T06:31:17.462Z,24.55
2022-09-17T06:33:44.042Z,24.49
2022-09-17T06:36:14.050Z,24.50
2022-09-17T06:38:41.383Z,24.53
2022-09-17T06:41:07.932Z,24.49
2022-09-17T06:43:34.411Z,24.53
2022-09-17T06:46:02.107Z,24.53
2022-09-17T06:48:29.497Z,24.48
2022-09-17T06:50:56.259Z,24.54
2022-09-17T06:53:23.168Z,24.53
2022-09-17T06:55:49.901Z,24.49
2022-09-17T06:58:16.537Z,24.53
2022-09-17T07:00:43.178Z,24.54
2022-09-17T07:03:09.791Z,24.54
2022-09-17T07:05:36.259Z,24.54
2022-09-17T07:08:03.292Z,24.49
2022-09-17T07:10:30.278Z,24.53
2022-09-17T07:12:56.792Z,24.54
2022-09-17T07:15:23.426Z,24.47
2022-09-17T07:17:49.977Z,24.53
2022-09-17T07:20:16.491Z,24.54
2022-09-17T07:22:43.292Z,24.50
2022-09-17T07:25:10.050Z,24.53
2022-09-17T07:27:36.564Z,24.52
2022-09-17T07:30:03.347Z,24.47
2022-09-17T07:32:30.831Z,24.55
2022-09-17T07:34:57.362Z,24.55
2022-09-17T07:37:23.913Z,24.55
2022-09-17T07:39:50.438Z,24.54
2022-09-17T07:42:16.939Z,24.55
2022-09-17T07:44:44.113Z,24.55
2022-09-17T07:47:10.599Z,24.55
2022-09-17T07:49:37.104Z,24.53
2022-09-17T07:52:06.604Z,24.56
2022-09-17T07:54:39.102Z,24.54
2022-09-17T07:57:05.639Z,24.54
2022-09-17T07:59:32.268Z,24.51
2022-09-17T08:01:58.756Z,24.54
2022-09-17T08:04:25.436Z,24.53
2022-09-17T08:06:51.948Z,24.51
2022-09-17T08:09:18.727Z,24.52
2022-09-17T08:11:55.483Z,24.53
2022-09-17T08:14:26.988Z,24.53
2022-09-17T08:16:55.799Z,24.53
2022-09-17T08:19:24.425Z,24.54
2022-09-17T08:21:51.054Z,24.51
2022-09-17T08:24:17.572Z,24.54
2022-09-17T08:26:44.273Z,24.55
2022-09-17T08:29:11.308Z,24.54
2022-09-17T08:31:37.897Z,24.55
2022-09-17T08:34:08.401Z,24.54
2022-09-17T08:36:34.878Z,24.53
2022-09-17T08:39:01.621Z,24.51
2022-09-17T08:41:55.372Z,24.46
2022-09-17T08:44:30.606Z,24.54
2022-09-17T08:47:06.035Z,24.46
2022-09-17T08:49:40.161Z,24.55
2022-09-17T08:52:28.280Z,24.53
2022-09-17T08:55:04.473Z,24.54
2022-09-17T08:57:43.036Z,24.55
2022-09-17T09:00:10.399Z,24.53
2022-09-17T09:03:03.523Z,24.53
2022-09-17T09:05:50.219Z,24.49
2022-09-17T09:08:38.052Z,24.55
2022-09-17T09:11:07.364Z,24.42
2022-09-17T09:13:36.715Z,24.55
2022-09-17T09:16:06.210Z,24.55
2022-09-17T09:18:36.999Z,24.54
2022-09-17T09:21:39.709Z,24.55
2022-09-17T09:24:22.648Z,24.54
2022-09-17T09:27:18.065Z,24.54
2022-09-17T09:29:44.425Z,24.53
2022-09-17T09:32:25.226Z,24.53
2022-09-17T09:34:51.711Z,24.45
2022-09-17T09:37:22.025Z,24.51
2022-09-17T09:39:49.175Z,24.47
2022-09-17T09:42:34.754Z,24.51
2022-09-17T09:45:15.140Z,24.45
2022-09-17T09:47:41.686Z,24.52
2022-09-17T09:50:38.429Z,24.49
2022-09-17T09:53:45.548Z,24.52
2022-09-17T09:56:26.457Z,24.52
2022-09-17T09:58:52.979Z,24.52
2022-09-17T10:01:22.923Z,24.53
2022-09-17T10:03:51.904Z,24.47
2022-09-17T10:06:18.451Z,24.44
2022-09-17T10:09:05.135Z,24.52
2022-09-17T10:11:35.239Z,24.49
2022-09-17T10:14:27.606Z,24.48
2022-09-17T10:17:11.865Z,24.47
2022-09-17T10:19:38.355Z,24.47
2022-09-17T10:22:23.507Z,24.53
2022-09-17T10:24:50.211Z,24.50
2022-09-17T10:27:18.183Z,24.40
2022-09-17T10:29:45.908Z,24.53
2022-09-17T10:32:19.379Z,24.52
2022-09-17T10:34:59.097Z,24.53
2022-09-17T10:37:32.712Z,24.53
2022-09-17T10:39:59.200Z,24.53
2022-09-17T10:42:25.712Z,24.54
2022-09-17T10:44:52.092Z,24.53
2022-09-17T10:47:25.775Z,24.53
2022-09-17T10:49:56.422Z,24.53
2022-09-17T10:52:35.146Z,24.54
2022-09-17T10:55:35.844Z,24.53
2022-09-17T10:58:08.280Z,24.52
2022-09-17T11:00:53.495Z,24.51
2022-09-17T11:03:38.191Z,24.51
2022-09-17T11:06:15.537Z,24.51
2022-09-17T11:08:44.959Z,24.50
2022-09-17T11:11:14.469Z,24.52
2022-09-17T11:14:03.416Z,24.49
2022-09-17T11:16:45.564Z,24.45
2022-09-17T11:19:48.900Z,24.51
2022-09-17T11:22:40.817Z,24.52
2022-09-17T11:25:40.428Z,24.51
2022-09-17T11:28:28.903Z,24.52
2022-09-17T11:31:04.599Z,24.51
2022-09-17T11:34:02.161Z,24.51
2022-09-17T11:36:38.475Z,24.51
2022-09-17T11:39:11.561Z,24.51
2022-09-17T11:41:41.584Z,24.52
2022-09-17T11:44:31.200Z,24.52
2022-09-17T11:47:01.289Z,24.52
2022-09-17T11:49:33.991Z,24.48
2022-09-17T11:52:04.241Z,24.43
2022-09-17T11:54:44.275Z,24.44
2022-09-17T11:57:21.209Z,24.45
2022-09-17T12:00:10.737Z,24.44
2022-09-17T12:02:52.505Z,24.53
2022-09-17T12:05:40.267Z,24.52
2022-09-17T12:08:19.721Z,24.47
2022-09-17T12:10:48.747Z,24.52
2022-09-17T12:13:36.779Z,24.45
2022-09-17T12:16:19.438Z,24.49
2022-09-17T12:19:06.278Z,24.45
2022-09-17T12:21:49.512Z,24.52
2022-09-17T12:24:22.975Z,24.47
2022-09-17T12:27:09.595Z,24.51
2022-09-17T12:30:02.534Z,24.51
2022-09-17T12:32:35.358Z,24.48
2022-09-17T12:36:02.405Z,24.46
2022-09-17T12:39:03.320Z,24.50
2022-09-17T12:41:32.622Z,24.50
2022-09-17T12:44:32.909Z,24.50
2022-09-17T12:47:06.420Z,24.51
2022-09-17T12:49:47.991Z,24.50
2022-09-17T12:52:54.139Z,24.51
2022-09-17T12:55:48.837Z,24.51
2022-09-17T12:58:24.331Z,24.49
2022-09-17T13:01:00.936Z,24.44
2022-09-17T13:03:49.276Z,24.39
2022-09-17T13:06:29.502Z,24.51
2022-09-17T13:09:27.110Z,24.51
2022-09-17T13:12:11.756Z,24.51
2022-09-17T13:14:44.269Z,24.51
2022-09-17T13:17:46.695Z,24.52
2022-09-17T13:20:15.832Z,24.51
2022-09-17T13:22:46.515Z,24.44
2022-09-17T13:25:13.928Z,24.52
2022-09-17T13:27:40.434Z,24.50
2022-09-17T13:30:08.570Z,24.51
2022-09-17T13:32:34.989Z,24.52
2022-09-17T13:35:10.490Z,24.52
2022-09-17T13:37:52.781Z,24.50
2022-09-17T13:40:22.785Z,24.52
2022-09-17T13:42:58.856Z,24.52
2022-09-17T13:45:25.698Z,24.53
2022-09-17T13:47:56.907Z,24.50
2022-09-17T13:50:32.293Z,24.53
2022-09-17T13:53:14.229Z,24.52
2022-09-17T13:55:58.497Z,24.52
2022-09-17T13:58:27.143Z,24.51
2022-09-17T14:00:59.983Z,24.45
2022-09-17T14:03:37.147Z,24.50
2022-09-17T14:06:03.547Z,24.49
2022-09-17T14:08:31.044Z,24.50
2022-09-17T14:10:59.370Z,24.50
2022-09-17T14:13:30.133Z,24.46
2022-09-17T14:16:02.050Z,24.47
2022-09-17T14:18:28.556Z,24.51
2022-09-17T14:21:25.755Z,24.51
2022-09-17T14:23:55.643Z,24.51
2022-09-17T14:26:35.312Z,24.50
2022-09-17T14:29:27.072Z,24.51
2022-09-17T14:31:53.574Z,24.47
2022-09-17T14:34:24.899Z,24.52
2022-09-17T14:36:51.391Z,24.51
2022-09-17T14:39:22.839Z,24.52
2022-09-17T14:41:49.346Z,24.43
2022-09-17T14:44:18.904Z,24.46
2022-09-17T14:47:10.452Z,24.51
2022-09-17T14:49:38.375Z,24.51
2022-09-17T14:52:27.135Z,24.51
2022-09-17T14:55:30.466Z,24.52
2022-09-17T14:57:58.628Z,24.46
2022-09-17T15:00:27.068Z,24.50
2022-09-17T15:02:55.788Z,24.51
2022-09-17T15:05:38.830Z,24.52
2022-09-17T15:08:14.075Z,24.52
2022-09-17T15:10:59.347Z,24.52
2022-09-17T15:13:35.922Z,24.52
2022-09-17T15:16:07.775Z,24.52
2022-09-17T15:18:39.914Z,24.48
2022-09-17T15:21:13.734Z,24.47
2022-09-17T15:23:40.248Z,24.39
2022-09-17T15:26:06.783Z,24.47
2022-09-17T15:28:37.732Z,24.49
2022-09-17T15:31:05.511Z,24.43
2022-09-17T15:33:32.405Z,24.49
2022-09-17T15:36:21.757Z,24.46
2022-09-17T15:38:48.755Z,24.49
2022-09-17T15:41:31.091Z,24.50
2022-09-17T15:44:29.714Z,24.49
2022-09-17T15:47:55.215Z,24.50
2022-09-17T15:50:28.736Z,24.33
2022-09-17T15:53:11.511Z,24.51
2022-09-17T15:55:40.977Z,24.46
2022-09-17T15:58:36.311Z,24.50
2022-09-17T16:01:15.135Z,24.50
2022-09-17T16:03:44.332Z,24.49
2022-09-17T16:06:20.758Z,24.51
2022-09-17T16:08:50.814Z,24.32
2022-09-17T16:11:17.901Z,24.50
2022-09-17T16:13:48.260Z,24.50
2022-09-17T16:16:39.156Z,24.40
2022-09-17T16:19:06.636Z,24.45
2022-09-17T16:21:33.150Z,24.50
2022-09-17T16:23:59.639Z,24.50
2022-09-17T16:26:29.029Z,24.52
2022-09-17T16:28:56.975Z,24.46
2022-09-17T16:31:23.536Z,24.51
2022-09-17T16:33:50.139Z,24.51
2022-09-17T16:36:17.041Z,24.51
2022-09-17T16:38:43.542Z,24.51
2022-09-17T16:41:10.060Z,24.48
2022-09-17T16:43:37.369Z,24.49
2022-09-17T16:46:05.554Z,24.51
2022-09-17T16:48:32.532Z,24.51
2022-09-17T16:50:59.606Z,24.47
2022-09-17T16:53:26.122Z,24.44
2022-09-17T16:55:52.616Z,24.46
2022-09-17T16:58:19.309Z,24.49
2022-09-17T17:00:45.951Z,24.48
2022-09-17T17:03:13.360Z,24.48
2022-09-17T17:05:40.170Z,24.43
2022-09-17T17:08:07.305Z,24.49
2022-09-17T17:10:33.948Z,24.49
2022-09-17T17:13:00.479Z,24.44
2022-09-17T17:15:27.125Z,24.49
2022-09-17T17:17:53.640Z,24.49
2022-09-17T17:20:20.128Z,24.47
2022-09-17T17:22:46.631Z,24.49
2022-09-17T17:25:13.836Z,24.46
2022-09-17T17:27:40.755Z,24.50
2022-09-17T17:30:08.493Z,24.50
2022-09-17T17:32:35.828Z,24.44
2022-09-17T17:35:02.666Z,24.50
2022-09-17T17:37:29.160Z,24.47
2022-09-17T17:39:56.360Z,24.49
2022-09-17T17:42:22.892Z,24.49
2022-09-17T17:44:49.420Z,24.50
2022-09-17T17:47:15.928Z,24.49
2022-09-17T17:49:44.476Z,24.47
2022-09-17T17:52:10.938Z,24.50
2022-09-17T17:54:37.484Z,24.49
2022-09-17T17:57:03.987Z,24.50
2022-09-17T17:59:30.506Z,24.50
2022-09-17T18:01:57.073Z,24.48
2022-09-17T18:04:23.604Z,24.51
2022-09-17T18:06:50.542Z,24.50
2022-09-17T18:09:17.230Z,24.51
2022-09-17T18:11:43.744Z,24.50
2022-09-17T18:14:12.040Z,24.48
2022-09-17T18:16:38.686Z,24.48
2022-09-17T18:19:05.350Z,24.43
2022-09-17T18:21:31.879Z,24.48
2022-09-17T18:23:58.375Z,24.43
2022-09-17T18:26:28.328Z,24.48
2022-09-17T18:28:54.859Z,24.48
2022-09-17T18:31:28.958Z,24.48
2022-09-17T18:34:00.438Z,24.48
2022-09-17T18:36:28.219Z,24.48
2022-09-17T18:38:56.456Z,24.48
2022-09-17T18:41:22.955Z,24.49
2022-09-17T18:43:49.507Z,24.49
2022-09-17T18:46:16.221Z,24.44
2022-09-17T18:48:42.784Z,24.49
2022-09-17T18:51:11.118Z,24.49
2022-09-17T18:53:37.946Z,24.49
2022-09-17T18:56:17.300Z,24.49
2022-09-17T18:58:47.895Z,24.46
2022-09-17T19:01:14.800Z,24.49
2022-09-17T19:03:41.368Z,24.44
2022-09-17T19:06:09.022Z,24.49
2022-09-17T19:08:35.715Z,24.49
2022-09-17T19:11:02.175Z,24.48
2022-09-17T19:13:35.603Z,24.49
2022-09-17T19:16:02.723Z,24.47
2022-09-17T19:18:29.289Z,24.49
2022-09-17T19:21:00.626Z,24.44
2022-09-17T19:23:27.419Z,24.46
2022-09-17T19:25:53.915Z,24.49
2022-09-17T19:28:21.831Z,24.48
2022-09-17T19:30:48.574Z,24.49
2022-09-17T19:33:15.106Z,24.31
2022-09-17T19:35:41.652Z,24.50
2022-09-17T19:38:13.115Z,24.48
2022-09-17T19:40:40.847Z,24.49
2022-09-17T19:43:07.432Z,24.49
2022-09-17T19:45:33.933Z,24.48
2022-09-17T19:48:01.652Z,24.47
2022-09-17T19:50:29.298Z,24.47
2022-09-17T19:52:56.395Z,24.46
2022-09-17T19:55:24.475Z,24.41
2022-09-17T19:57:50.991Z,24.47
2022-09-17T20:00:17.471Z,24.47
2022-09-17T20:02:43.983Z,24.46
2022-09-17T20:05:10.531Z,24.45
2022-09-17T20:07:37.042Z,24.47
2022-09-17T20:10:03.590Z,24.46
2022-09-17T20:12:30.142Z,24.48
2022-09-17T20:14:56.730Z,24.45
2022-09-17T20:17:23.204Z,24.47
2022-09-17T20:19:49.745Z,24.41
2022-09-17T20:22:16.216Z,24.48
2022-09-17T20:24:42.751Z,24.47
2022-09-17T20:27:09.219Z,24.48
2022-09-17T20:29:35.756Z,24.47
2022-09-17T20:32:02.211Z,24.48
2022-09-17T20:34:28.713Z,24.48
2022-09-17T20:37:11.845Z,24.48
2022-09-17T20:39:38.964Z,24.48
2022-09-17T20:42:05.495Z,24.49
2022-09-17T20:44:31.979Z,24.48
2022-09-17T20:46:58.550Z,24.49
2022-09-17T20:49:25.515Z,24.49
2022-09-17T20:51:52.345Z,24.48
2022-09-17T20:54:18.859Z,24.48
2022-09-17T20:56:46.449Z,24.49
2022-09-17T20:59:15.052Z,24.47
2022-09-17T21:01:44.577Z,24.46
2022-09-17T21:04:11.883Z,24.47
2022-09-17T21:06:41.033Z,24.48
2022-09-17T21:09:10.252Z,24.48
2022-09-17T21:11:36.741Z,24.47
2022-09-17T21:14:03.348Z,24.41
2022-09-17T21:16:30.190Z,24.45
2022-09-17T21:18:57.963Z,24.46
2022-09-17T21:21:24.663Z,24.45
2022-09-17T21:23:52.526Z,24.45
2022-09-17T21:26:20.662Z,24.46
2022-09-17T21:28:47.867Z,24.45
2022-09-17T21:31:15.325Z,24.46
2022-09-17T21:33:42.136Z,24.45
2022-09-17T21:36:12.862Z,24.45
2022-09-17T21:38:39.372Z,24.46
2022-09-17T21:41:08.072Z,24.46
2022-09-17T21:43:35.120Z,24.46
2022-09-17T21:46:11.909Z,24.47
2022-09-17T21:48:43.864Z,24.46
2022-09-17T21:51:14.993Z,24.46
2022-09-17T21:53:41.511Z,24.46
2022-09-17T21:56:13.801Z,24.46
2022-09-17T21:58:40.499Z,24.46
2022-09-17T22:01:11.572Z,24.47
2022-09-17T22:03:38.204Z,24.46
2022-09-17T22:06:10.810Z,24.47
2022-09-17T22:08:37.301Z,24.45
2022-09-17T22:11:07.533Z,24.46
2022-09-17T22:13:34.700Z,24.46
2022-09-17T22:16:03.251Z,24.46
2022-09-17T22:18:30.343Z,24.47
2022-09-17T22:20:56.892Z,24.46
2022-09-17T22:23:23.563Z,24.47
2022-09-17T22:25:50.060Z,24.47
2022-09-17T22:28:21.459Z,24.48
2022-09-17T22:30:48.283Z,24.45
2022-09-17T22:33:14.800Z,24.46
2022-09-17T22:35:41.451Z,24.47
2022-09-17T22:38:07.925Z,24.46
2022-09-17T22:40:36.105Z,24.46
2022-09-17T22:43:02.650Z,24.43
2022-09-17T22:45:29.369Z,24.44
2022-09-17T22:47:55.877Z,24.42
2022-09-17T22:50:22.412Z,24.44
2022-09-17T22:52:48.947Z,24.39
2022-09-17T22:55:15.550Z,24.41
2022-09-17T22:57:42.080Z,24.45
2022-09-17T23:00:09.235Z,24.43
2022-09-17T23:02:35.773Z,24.44
2022-09-17T23:05:02.272Z,24.45
2022-09-17T23:07:28.775Z,24.46
2022-09-17T23:09:55.297Z,24.45
2022-09-17T23:12:21.800Z,24.46
2022-09-17T23:14:48.320Z,24.45
2022-09-17T23:17:14.840Z,24.46
2022-09-17T23:19:41.318Z,24.45
2022-09-17T23:22:07.836Z,24.46
2022-09-17T23:24:34.486Z,24.46
2022-09-17T23:27:00.980Z,24.45
2022-09-17T23:29:27.480Z,24.47
2022-09-17T23:31:53.960Z,24.45
2022-09-17T23:34:20.466Z,24.45
2022-09-17T23:36:47.431Z,24.47
2022-09-17T23:39:13.980Z,24.46
2022-09-17T23:41:43.145Z,24.45
2022-09-17T23:44:14.912Z,24.47
2022-09-17T23:46:42.592Z,24.47
2022-09-17T23:49:10.126Z,24.47
2022-09-17T23:51:36.654Z,24.45
2022-09-17T23:54:05.187Z,24.46
2022-09-17T23:56:31.691Z,24.46
2022-09-17T23:58:59.628Z,24.45
